Time;durP1;ratioP1;P1;durP2;ratioP2;P2;SDS_P1;SDS_P2;PMS_P1;PMS_P2;Temp;Humidity;BMP_temperature;BMP_pressure;BME280_temperature;BME280_humidity;BME280_pressure;Samples;Min_cycle;Max_cycle;Signal;HPM_P1;HPM_P2
2021/11/29 00:00:09;;;;;;;60.60;36.30;;;;;;;6.19;76.94;96460.08;104485;1319;97365;-69
2021/11/29 00:03:05;;;;;;;48.40;29.20;;;;;;;6.17;77.08;96473.30;102798;1319;115405;-71
2021/11/29 00:05:34;;;;;;;47.70;27.70;;;;;;;6.11;76.67;96479.66;102775;1319;99286;-70
2021/11/29 00:08:03;;;;;;;45.20;26.00;;;;;;;6.01;76.77;96480.03;102605;1321;108403;-71
2021/11/29 00:10:33;;;;;;;41.40;23.70;;;;;;;5.92;76.79;96478.05;102658;1319;100683;-70
2021/11/29 00:13:02;;;;;;;39.60;23.10;;;;;;;5.83;76.81;96484.55;102637;1321;99312;-69
2021/11/29 00:15:31;;;;;;;44.50;26.80;;;;;;;5.74;76.80;96483.83;102771;1318;112967;-69
2021/11/29 00:18:02;;;;;;;38.50;22.40;;;;;;;5.63;76.77;96486.08;102673;1324;99696;-68
2021/11/29 00:20:31;;;;;;;40.00;23.70;;;;;;;5.54;76.85;96481.45;102831;1321;107674;-70
2021/11/29 00:23:01;;;;;;;39.90;22.40;;;;;;;5.44;76.93;96480.46;102757;1320;99595;-69
2021/11/29 00:25:31;;;;;;;38.00;22.20;;;;;;;5.34;76.77;96482.02;102772;1319;99240;-68
2021/11/29 00:27:59;;;;;;;40.90;22.40;;;;;;;5.31;76.97;96489.90;102735;1319;112777;-70
2021/11/29 00:30:27;;;;;;;42.70;23.80;;;;;;;5.25;76.89;96496.27;102772;1321;99282;-70
2021/11/29 00:32:55;;;;;;;45.70;24.60;;;;;;;5.19;76.89;96490.84;102724;1318;108467;-68
2021/11/29 00:35:22;;;;;;;41.80;23.20;;;;;;;5.12;76.81;96485.79;102710;1321;99242;-69
2021/11/29 00:37:50;;;;;;;41.90;22.80;;;;;;;5.07;76.91;96480.09;102777;1318;97769;-69
2021/11/29 00:40:20;;;;;;;41.30;22.50;;;;;;;5.02;77.09;96479.84;102841;1319;112848;-68
2021/11/29 00:42:47;;;;;;;48.10;26.20;;;;;;;4.98;77.02;96472.90;102730;1320;96602;-68
2021/11/29 00:45:17;;;;;;;47.30;24.90;;;;;;;4.94;77.04;96476.92;102918;1322;110204;-69
2021/11/29 00:47:46;;;;;;;47.70;26.20;;;;;;;4.89;76.92;96484.36;102675;1321;99221;-70
2021/11/29 00:50:18;;;;;;;48.00;26.00;;;;;;;4.83;76.91;96481.95;102864;1322;97293;-69
2021/11/29 00:52:48;;;;;;;49.80;25.60;;;;;;;4.79;77.02;96480.92;102910;1324;111351;-70
2021/11/29 00:55:19;;;;;;;54.00;27.50;;;;;;;4.76;77.08;96475.13;102835;1318;99238;-70
2021/11/29 00:57:46;;;;;;;54.40;29.70;;;;;;;4.76;76.99;96468.38;102685;1321;107855;-70
2021/11/29 01:00:20;;;;;;;51.80;27.20;;;;;;;4.71;77.06;96464.42;102718;1325;99392;-71
2021/11/29 01:02:49;;;;;;;53.50;27.80;;;;;;;4.66;76.98;96459.25;102852;1320;99251;-70
2021/11/29 01:05:20;;;;;;;50.70;25.40;;;;;;;4.60;76.96;96462.77;102782;1318;113554;-70
2021/11/29 01:07:49;;;;;;;60.40;29.20;;;;;;;4.55;77.06;96462.86;102813;1323;99506;-70
2021/11/29 01:10:19;;;;;;;54.20;29.10;;;;;;;4.51;77.06;96468.16;102824;1320;107910;-70
2021/11/29 01:12:48;;;;;;;56.50;30.00;;;;;;;4.50;77.29;96471.77;102804;1318;99424;-70
2021/11/29 01:15:21;;;;;;;59.70;29.80;;;;;;;4.49;77.21;96474.48;102854;1319;99281;-69
2021/11/29 01:17:49;;;;;;;58.20;30.40;;;;;;;4.46;77.18;96482.58;102833;1321;112934;-70
2021/11/29 01:20:18;;;;;;;53.30;27.00;;;;;;;4.45;77.24;96483.55;102811;1319;97108;-70
2021/11/29 01:22:47;;;;;;;59.80;29.20;;;;;;;4.43;77.30;96479.86;102761;1326;108644;-69
2021/11/29 01:25:15;;;;;;;54.00;29.30;;;;;;;4.41;77.24;96468.80;102904;1322;99419;-70
2021/11/29 01:27:43;;;;;;;50.00;25.10;;;;;;;4.41;77.36;96465.12;102903;1321;100045;-70
2021/11/29 01:30:12;;;;;;;52.50;27.70;;;;;;;4.41;77.35;96463.79;102874;1318;112867;-70
2021/11/29 01:32:40;;;;;;;57.50;29.10;;;;;;;4.38;77.29;96455.39;102931;1319;99286;-71
2021/11/29 01:35:09;;;;;;;57.90;28.80;;;;;;;4.37;77.36;96466.71;102816;1319;107466;-70
2021/11/29 01:37:37;;;;;;;57.80;29.60;;;;;;;4.36;77.40;96467.16;102816;1319;99414;-71
2021/11/29 01:40:08;;;;;;;58.50;30.40;;;;;;;4.37;77.40;96472.94;102840;1320;99346;-70
2021/11/29 01:42:36;;;;;;;57.30;29.00;;;;;;;4.37;77.37;96474.46;102769;1321;112865;-70
2021/11/29 01:45:05;;;;;;;50.40;26.40;;;;;;;4.38;77.44;96482.77;102688;1320;97817;-71
2021/11/29 01:47:33;;;;;;;44.90;20.50;;;;;;;4.40;77.39;96494.02;102829;1321;107872;-69
2021/11/29 01:50:00;;;;;;;49.30;24.60;;;;;;;4.39;77.32;96506.59;102657;1321;99220;-70
2021/11/29 01:52:30;;;;;;;44.20;23.20;;;;;;;4.37;77.37;96509.20;102846;1319;97927;-70
2021/11/29 01:54:58;;;;;;;46.40;23.90;;;;;;;4.33;77.29;96508.83;102880;1322;112867;-70
2021/11/29 01:57:26;;;;;;;45.70;23.60;;;;;;;4.29;77.41;96498.29;102788;1318;96540;-70
2021/11/29 01:59:54;;;;;;;47.20;25.10;;;;;;;4.27;77.46;96492.75;102793;1321;108484;-70
2021/11/29 02:02:27;;;;;;;46.10;22.70;;;;;;;4.24;77.30;96494.21;102888;1321;96647;-71
2021/11/29 02:04:59;;;;;;;48.80;24.60;;;;;;;4.21;77.45;96494.11;102830;1318;97864;-70
2021/11/29 02:07:27;;;;;;;47.90;23.10;;;;;;;4.17;77.52;96493.36;102841;1321;112928;-71
2021/11/29 02:09:55;;;;;;;54.90;26.80;;;;;;;4.15;77.46;96493.58;102844;1318;99283;-70
2021/11/29 02:12:24;;;;;;;49.30;26.50;;;;;;;4.11;77.41;96488.83;102781;1320;107915;-70
2021/11/29 02:14:52;;;;;;;52.80;26.80;;;;;;;4.09;77.61;96482.31;102853;1319;99229;-70
2021/11/29 02:17:20;;;;;;;51.30;26.60;;;;;;;4.07;77.52;96488.79;102824;1319;96540;-70
2021/11/29 02:19:48;;;;;;;50.40;25.40;;;;;;;4.03;77.55;96498.84;102887;1319;112953;-70
2021/11/29 02:22:17;;;;;;;53.80;26.20;;;;;;;3.97;77.22;96493.91;102747;1322;98047;-70
2021/11/29 02:24:46;;;;;;;46.40;25.90;;;;;;;3.94;77.53;96506.77;102872;1318;105735;-73
2021/11/29 02:27:15;;;;;;;48.90;24.40;;;;;;;3.91;77.40;96509.64;102818;1322;99450;-69
2021/11/29 02:29:44;;;;;;;42.30;22.20;;;;;;;3.89;77.46;96511.81;102878;1318;97913;-69
2021/11/29 02:32:12;;;;;;;43.10;22.50;;;;;;;3.79;77.10;96508.60;102823;1318;113286;-70
2021/11/29 02:34:42;;;;;;;46.30;24.50;;;;;;;3.69;77.36;96507.66;102835;1320;99269;-70
2021/11/29 02:37:10;;;;;;;44.80;24.50;;;;;;;3.63;77.50;96509.08;102791;1321;108420;-72
2021/11/29 02:39:38;;;;;;;46.00;25.30;;;;;;;3.60;77.70;96516.72;102769;1318;99285;-71
2021/11/29 02:42:10;;;;;;;54.00;28.30;;;;;;;3.58;77.48;96519.85;102866;1318;99268;-70
2021/11/29 02:44:39;;;;;;;53.80;29.20;;;;;;;3.54;77.27;96524.54;102913;1320;112866;-70
2021/11/29 02:47:09;;;;;;;55.00;29.90;;;;;;;3.49;77.36;96524.62;102802;1318;99188;-69
2021/11/29 02:49:38;;;;;;;53.10;27.50;;;;;;;3.44;77.55;96521.92;102762;1322;108557;-70
2021/11/29 02:52:11;;;;;;;47.40;26.20;;;;;;;3.36;77.40;96515.06;102520;1319;341696;-68
2021/11/29 02:54:44;;;;;;;50.00;27.40;;;;;;;3.30;77.77;96515.03;102815;1322;99290;-69
2021/11/29 02:57:17;;;;;;;52.80;27.90;;;;;;;3.22;77.33;96518.66;102823;1320;112891;-70
2021/11/29 02:59:46;;;;;;;50.30;26.50;;;;;;;3.16;77.51;96517.08;102837;1318;99592;-70
2021/11/29 03:02:19;;;;;;;49.90;25.50;;;;;;;3.08;77.36;96511.05;102847;1319;107397;-71
2021/11/29 03:04:49;;;;;;;51.30;27.60;;;;;;;3.02;77.35;96512.23;102826;1321;99388;-70
2021/11/29 03:07:17;;;;;;;43.90;22.00;;;;;;;2.98;77.59;96521.14;102876;1319;99505;-69
2021/11/29 03:09:47;;;;;;;48.50;26.00;;;;;;;2.94;77.52;96530.34;102774;1319;113612;-69
2021/11/29 03:12:17;;;;;;;42.90;21.80;;;;;;;2.90;77.70;96544.33;102877;1319;99265;-69
2021/11/29 03:14:45;;;;;;;39.90;22.00;;;;;;;2.88;77.23;96549.24;102798;1318;108238;-70
2021/11/29 03:17:13;;;;;;;36.80;18.90;;;;;;;2.82;77.69;96555.55;102825;1320;99326;-70
2021/11/29 03:19:43;;;;;;;37.20;18.30;;;;;;;2.75;77.57;96559.39;102771;1321;99385;-69
2021/11/29 03:22:12;;;;;;;36.60;18.80;;;;;;;2.69;77.32;96558.11;102834;1318;113399;-71
2021/11/29 03:24:46;;;;;;;33.60;17.80;;;;;;;2.65;77.36;96564.44;102927;1322;99103;-69
2021/11/29 03:27:15;;;;;;;34.70;17.90;;;;;;;2.58;77.45;96563.42;102895;1319;106884;-70
2021/11/29 03:29:48;;;;;;;33.50;17.40;;;;;;;2.51;77.36;96560.45;102855;1322;98401;-70
2021/11/29 03:32:19;;;;;;;33.00;17.40;;;;;;;2.44;77.36;96558.40;102816;1318;99298;-69
2021/11/29 03:34:49;;;;;;;33.30;18.10;;;;;;;2.39;77.42;96561.73;102860;1321;112962;-72
2021/11/29 03:37:22;;;;;;;34.00;17.00;;;;;;;2.33;77.71;96567.59;102796;1319;97844;-71
2021/11/29 03:39:51;;;;;;;34.00;17.60;;;;;;;2.30;77.44;96568.24;102809;1319;108782;-70
2021/11/29 03:42:19;;;;;;;35.00;18.50;;;;;;;2.28;77.60;96571.93;102861;1318;99645;-71
2021/11/29 03:44:47;;;;;;;35.30;18.20;;;;;;;2.23;77.86;96575.39;102805;1322;99240;-69
2021/11/29 03:47:16;;;;;;;32.90;17.60;;;;;;;2.19;77.87;96571.54;102823;1318;111834;-70
2021/11/29 03:49:45;;;;;;;34.40;17.80;;;;;;;2.16;77.95;96575.95;102847;1318;99291;-72
2021/11/29 03:52:14;;;;;;;36.20;17.30;;;;;;;2.14;77.80;96573.33;102780;1319;109199;-69
2021/11/29 03:54:42;;;;;;;32.10;15.90;;;;;;;2.11;77.77;96568.50;102866;1319;96752;-71
2021/11/29 03:57:10;;;;;;;32.30;16.90;;;;;;;2.06;77.79;96570.91;102969;1318;99339;-70
2021/11/29 03:59:37;;;;;;;31.80;15.80;;;;;;;2.06;77.80;96573.77;102867;1321;112943;-70
2021/11/29 04:02:05;;;;;;;33.60;16.60;;;;;;;2.04;77.94;96575.66;102826;1322;99352;-71
2021/11/29 04:04:36;;;;;;;32.40;16.10;;;;;;;2.00;77.77;96575.84;102796;1318;108541;-69
2021/11/29 04:07:04;;;;;;;31.80;15.60;;;;;;;1.97;77.85;96579.75;102795;1319;99349;-70
2021/11/29 04:09:31;;;;;;;31.60;14.50;;;;;;;1.94;78.07;96578.16;102868;1318;99394;-70
2021/11/29 04:12:02;;;;;;;33.60;18.00;;;;;;;1.91;77.85;96583.83;102799;1318;112340;-68
2021/11/29 04:14:31;;;;;;;33.50;16.40;;;;;;;1.89;77.94;96585.72;102722;1321;99307;-68
2021/11/29 04:17:00;;;;;;;33.60;17.00;;;;;;;1.90;77.91;96585.61;102673;1321;107841;-67
2021/11/29 04:19:28;;;;;;;31.60;15.60;;;;;;;1.90;77.85;96585.30;102787;1318;100334;-69
2021/11/29 04:21:57;;;;;;;34.20;17.70;;;;;;;1.89;77.86;96587.85;102793;1322;96627;-69
2021/11/29 04:24:26;;;;;;;33.80;16.50;;;;;;;1.88;77.82;96590.37;102799;1318;113099;-69
2021/11/29 04:26:55;;;;;;;37.30;18.40;;;;;;;1.88;77.65;96588.80;102784;1319;99218;-70
2021/11/29 04:29:28;;;;;;;38.50;19.70;;;;;;;1.88;77.82;96584.22;102858;1323;107903;-69
2021/11/29 04:31:56;;;;;;;34.10;18.10;;;;;;;1.88;77.86;96582.34;102828;1317;96695;-70
2021/11/29 04:34:23;;;;;;;37.70;19.50;;;;;;;1.88;77.66;96573.21;102836;1319;99279;-70
2021/11/29 04:36:53;;;;;;;39.40;19.70;;;;;;;1.88;77.69;96571.66;102754;1320;113295;-69
2021/11/29 04:39:24;;;;;;;34.90;18.10;;;;;;;1.85;77.65;96579.03;102869;1319;99252;-68
2021/11/29 04:41:52;;;;;;;36.90;18.40;;;;;;;1.82;77.90;96579.59;102814;1318;108758;-69
2021/11/29 04:44:21;;;;;;;34.20;17.30;;;;;;;1.81;77.99;96583.59;102681;1321;99291;-67
2021/11/29 04:46:49;;;;;;;34.30;18.10;;;;;;;1.79;78.03;96585.33;102806;1321;96552;-70
2021/11/29 04:49:19;;;;;;;33.20;15.60;;;;;;;1.79;77.93;96594.85;102854;1319;113605;-68
2021/11/29 04:51:48;;;;;;;30.70;16.20;;;;;;;1.77;77.65;96599.76;102833;1323;99318;-68
2021/11/29 04:54:18;;;;;;;32.60;15.90;;;;;;;1.74;77.87;96602.91;102796;1318;108503;-69
2021/11/29 04:56:47;;;;;;;34.30;15.80;;;;;;;1.72;77.63;96603.59;102915;1319;99501;-70
2021/11/29 04:59:15;;;;;;;27.80;13.00;;;;;;;1.70;77.88;96609.53;102842;1321;98434;-68
2021/11/29 05:01:43;;;;;;;27.70;13.70;;;;;;;1.68;77.79;96615.94;102793;1319;113721;-69
2021/11/29 05:04:11;;;;;;;31.60;15.30;;;;;;;1.67;77.76;96616.23;102842;1319;99260;-68
2021/11/29 05:06:41;;;;;;;29.70;14.00;;;;;;;1.64;77.45;96612.23;102932;1319;108562;-68
2021/11/29 05:09:11;;;;;;;32.80;15.80;;;;;;;1.62;77.67;96611.34;102734;1322;99160;-70
2021/11/29 05:11:41;;;;;;;33.70;15.70;;;;;;;1.62;77.95;96609.44;102903;1322;100119;-69
2021/11/29 05:14:09;;;;;;;29.70;14.60;;;;;;;1.63;78.07;96615.12;102831;1322;113191;-68
2021/11/29 05:16:43;;;;;;;31.60;15.60;;;;;;;1.63;77.91;96619.09;102787;1325;96588;-68
2021/11/29 05:19:13;;;;;;;31.20;15.70;;;;;;;1.63;77.66;96619.84;102750;1325;107804;-69
2021/11/29 05:21:44;;;;;;;23.60;11.60;;;;;;;1.60;77.80;96623.56;102721;1321;99669;-69
2021/11/29 05:24:14;;;;;;;30.60;15.30;;;;;;;1.60;77.70;96629.16;102753;1325;99353;-69
2021/11/29 05:26:48;;;;;;;33.50;15.90;;;;;;;1.55;77.73;96633.58;102743;1321;113388;-69
2021/11/29 05:29:19;;;;;;;32.80;15.90;;;;;;;1.53;77.72;96638.09;102766;1325;99961;-69
2021/11/29 05:31:50;;;;;;;29.80;15.30;;;;;;;1.51;77.98;96634.36;102768;1322;108365;-68
2021/11/29 05:34:22;;;;;;;33.50;15.80;;;;;;;1.48;77.76;96635.44;102747;1325;96550;-68
2021/11/29 05:36:52;;;;;;;32.80;16.60;;;;;;;1.47;77.94;96642.02;102811;1325;99352;-68
2021/11/29 05:39:20;;;;;;;31.60;15.90;;;;;;;1.45;78.07;96649.80;102845;1322;112629;-68
2021/11/29 05:41:48;;;;;;;32.90;16.00;;;;;;;1.46;78.00;96654.83;102828;1321;99274;-69
2021/11/29 05:44:19;;;;;;;29.60;14.70;;;;;;;1.44;77.83;96665.64;102935;1319;108417;-69
2021/11/29 05:46:47;;;;;;;31.50;15.40;;;;;;;1.42;77.86;96666.64;102768;1321;99371;-68
2021/11/29 05:49:19;;;;;;;31.80;14.70;;;;;;;1.40;77.89;96668.34;102829;1319;97843;-70
2021/11/29 05:51:47;;;;;;;33.40;15.80;;;;;;;1.35;77.87;96668.41;102806;1322;112932;-70
2021/11/29 05:54:15;;;;;;;32.50;14.80;;;;;;;1.31;77.83;96670.95;102959;1319;99367;-69
2021/11/29 05:56:46;;;;;;;31.10;16.00;;;;;;;1.27;77.84;96663.91;102798;1322;108529;-68
2021/11/29 05:59:14;;;;;;;28.30;13.80;;;;;;;1.28;77.98;96665.42;102899;1319;99460;-69
2021/11/29 06:01:42;;;;;;;31.20;15.10;;;;;;;1.27;77.99;96662.67;102901;1319;99972;-66
2021/11/29 06:04:09;;;;;;;32.40;16.50;;;;;;;1.25;77.90;96670.85;102756;1318;113856;-70
2021/11/29 06:06:38;;;;;;;33.10;15.40;;;;;;;1.23;77.73;96672.55;102747;1321;99184;-68
2021/11/29 06:09:06;;;;;;;32.50;16.00;;;;;;;1.22;77.90;96671.80;102815;1322;107943;-68
2021/11/29 06:11:34;;;;;;;32.90;16.50;;;;;;;1.22;77.96;96674.59;102807;1322;96652;-68
2021/11/29 06:14:02;;;;;;;32.00;16.10;;;;;;;1.21;77.82;96673.61;102701;1319;96628;-66
2021/11/29 06:16:31;;;;;;;32.00;15.40;;;;;;;1.20;77.92;96675.58;102749;1319;113243;-68
2021/11/29 06:18:58;;;;;;;29.50;15.00;;;;;;;1.20;78.01;96682.39;102737;1321;99220;-69
2021/11/29 06:21:27;;;;;;;32.60;15.50;;;;;;;1.18;78.05;96684.27;102786;1319;108552;-67
2021/11/29 06:23:56;;;;;;;33.80;16.20;;;;;;;1.15;78.03;96686.91;103004;1322;99323;-68
2021/11/29 06:26:24;;;;;;;34.20;17.10;;;;;;;1.15;77.77;96686.92;102759;1322;97758;-68
2021/11/29 06:28:53;;;;;;;32.50;16.90;;;;;;;1.16;77.95;96686.56;102925;1322;113708;-67
2021/11/29 06:31:21;;;;;;;34.10;18.20;;;;;;;1.17;78.10;96693.05;102931;1321;99244;-68
2021/11/29 06:33:49;;;;;;;36.30;18.50;;;;;;;1.19;78.23;96696.23;102683;1322;108547;-67
2021/11/29 06:36:18;;;;;;;33.80;16.70;;;;;;;1.20;78.08;96701.58;102803;1315;99937;-70
2021/11/29 06:38:49;;;;;;;32.00;16.60;;;;;;;1.20;77.83;96702.11;102899;1318;100047;-68
2021/11/29 06:41:19;;;;;;;34.10;16.90;;;;;;;1.18;78.19;96701.59;102903;1322;112866;-67
2021/11/29 06:43:52;;;;;;;32.80;15.60;;;;;;;1.17;78.03;96709.11;102988;1319;99327;-68
2021/11/29 06:46:22;;;;;;;36.10;17.20;;;;;;;1.18;78.10;96713.26;102898;1319;107873;-68
2021/11/29 06:48:50;;;;;;;38.60;18.80;;;;;;;1.16;78.10;96720.17;102743;1318;99348;-67
2021/11/29 06:51:23;;;;;;;39.90;18.30;;;;;;;1.17;78.21;96722.75;102763;1322;96564;-68
2021/11/29 06:53:51;;;;;;;36.50;19.50;;;;;;;1.15;78.10;96712.74;102745;1322;112981;-68
2021/11/29 06:56:19;;;;;;;36.90;17.50;;;;;;;1.16;78.16;96714.64;102817;1319;97760;-68
2021/11/29 06:58:47;;;;;;;33.40;17.40;;;;;;;1.14;78.04;96716.54;102758;1322;108291;-68
2021/11/29 07:01:16;;;;;;;34.00;17.20;;;;;;;1.11;77.87;96721.40;102785;1321;97780;-68
2021/11/29 07:03:45;;;;;;;33.70;17.20;;;;;;;1.09;77.85;96715.29;102820;1322;96580;-67
2021/11/29 07:06:17;;;;;;;37.20;19.30;;;;;;;1.08;77.99;96708.23;102773;1322;113450;-67
2021/11/29 07:08:47;;;;;;;38.40;18.20;;;;;;;1.08;78.02;96700.03;102785;1322;96552;-68
2021/11/29 07:11:19;;;;;;;33.90;15.60;;;;;;;1.03;77.89;96691.64;102824;1322;107702;-69
2021/11/29 07:13:49;;;;;;;35.30;17.60;;;;;;;1.03;78.02;96694.20;102859;1325;99135;-68
2021/11/29 07:16:17;;;;;;;34.50;18.50;;;;;;;1.02;78.17;96696.04;102833;1322;96708;-69
2021/11/29 07:18:46;;;;;;;38.70;18.00;;;;;;;1.01;78.01;96693.83;102982;1322;113556;-68
2021/11/29 07:21:15;;;;;;;37.10;19.30;;;;;;;1.03;78.21;96707.66;102903;1319;99010;-67
2021/11/29 07:23:42;;;;;;;38.00;19.00;;;;;;;1.03;78.18;96719.55;102833;1322;108450;-68
2021/11/29 07:26:11;;;;;;;40.20;18.30;;;;;;;1.06;78.18;96713.91;102843;1315;99275;-70
2021/11/29 07:28:39;;;;;;;35.60;17.90;;;;;;;1.07;78.11;96701.45;102744;1322;99901;-68
2021/11/29 07:31:07;;;;;;;36.30;18.00;;;;;;;1.09;77.99;96695.05;102855;1322;113440;-69
2021/11/29 07:33:35;;;;;;;34.40;16.70;;;;;;;1.07;78.22;96695.73;102644;1322;99243;-69
2021/11/29 07:36:03;;;;;;;36.60;17.40;;;;;;;1.05;78.06;96720.27;102606;1318;108476;-68
2021/11/29 07:38:37;;;;;;;36.50;17.80;;;;;;;1.04;77.95;96735.20;102686;1321;99311;-68
2021/11/29 07:41:05;;;;;;;34.60;16.50;;;;;;;1.02;78.02;96737.39;102708;1318;99284;-68
2021/11/29 07:43:34;;;;;;;35.90;16.90;;;;;;;1.02;78.13;96742.34;102816;1318;113027;-67
2021/11/29 07:46:02;;;;;;;36.20;15.70;;;;;;;1.01;78.15;96736.41;102678;1328;97111;-69
2021/11/29 07:48:31;;;;;;;36.50;17.80;;;;;;;1.00;78.23;96743.64;102661;1322;109531;-68
2021/11/29 07:50:59;;;;;;;36.60;17.50;;;;;;;1.01;78.23;96738.69;102787;1321;99292;-68
2021/11/29 07:53:27;;;;;;;34.30;17.40;;;;;;;1.03;78.09;96741.37;102643;1318;99269;-67
2021/11/29 07:55:55;;;;;;;35.40;16.90;;;;;;;1.02;77.97;96751.55;102614;1319;113543;-67
2021/11/29 07:58:23;;;;;;;32.40;16.00;;;;;;;0.99;77.96;96756.83;102646;1318;97889;-67
2021/11/29 08:00:55;;;;;;;32.10;14.60;;;;;;;0.99;78.24;96754.20;102752;1318;108378;-68
2021/11/29 08:03:23;;;;;;;33.10;16.00;;;;;;;0.98;78.11;96762.88;102694;1321;99760;-67
2021/11/29 08:05:51;;;;;;;29.60;14.30;;;;;;;0.95;78.09;96765.85;102750;1322;99274;-67
2021/11/29 08:08:19;;;;;;;39.60;14.50;;;;;;;0.93;78.16;96760.56;102967;1322;113523;-68
2021/11/29 08:10:47;;;;;;;29.40;14.10;;;;;;;0.92;78.12;96766.28;102871;1318;99271;-67
2021/11/29 08:13:19;;;;;;;29.70;14.30;;;;;;;0.89;78.10;96768.88;102818;1322;109587;-67
2021/11/29 08:15:48;;;;;;;31.60;15.40;;;;;;;0.90;78.12;96776.65;102721;1318;99282;-67
2021/11/29 08:18:17;;;;;;;33.40;16.30;;;;;;;0.90;78.17;96779.81;102869;1319;96648;-68
2021/11/29 08:20:48;;;;;;;35.30;17.10;;;;;;;0.89;78.14;96779.36;102722;1321;112147;-70
2021/11/29 08:23:19;;;;;;;32.70;16.50;;;;;;;0.89;78.13;96784.73;102698;1322;99356;-68
2021/11/29 08:25:46;;;;;;;32.30;16.90;;;;;;;0.89;78.11;96796.45;102749;1325;108454;-68
2021/11/29 08:28:17;;;;;;;35.60;18.40;;;;;;;0.87;78.25;96801.63;102748;1321;99353;-68
2021/11/29 08:30:45;;;;;;;38.40;18.50;;;;;;;0.85;78.16;96805.94;102841;1318;99372;-68
2021/11/29 08:33:19;;;;;;;35.50;17.10;;;;;;;0.84;78.12;96813.55;102697;1322;113369;-67
2021/11/29 08:35:50;;;;;;;36.20;17.30;;;;;;;0.81;78.14;96818.95;103753;1318;99261;-68
2021/11/29 08:38:19;;;;;;;35.50;16.50;;;;;;;0.81;78.18;96822.66;104454;1321;107955;-68
2021/11/29 08:40:49;;;;;;;36.20;18.10;;;;;;;0.80;78.14;96827.80;103305;1319;99299;-68
2021/11/29 08:43:20;;;;;;;35.90;17.20;;;;;;;0.78;78.13;96827.02;102710;1322;99336;-68
2021/11/29 08:45:55;;;;;;;30.90;14.50;;;;;;;0.77;78.08;96827.44;103094;1321;113283;-68
2021/11/29 08:48:25;;;;;;;33.90;17.20;;;;;;;0.77;78.14;96824.54;103194;1322;98139;-68
2021/11/29 08:50:55;;;;;;;33.80;16.30;;;;;;;0.75;78.07;96822.02;102815;1319;106277;-68
2021/11/29 08:53:26;;;;;;;32.70;17.50;;;;;;;0.72;78.00;96824.67;102716;1321;99269;-68
2021/11/29 08:55:55;;;;;;;33.60;17.00;;;;;;;0.66;78.29;96822.27;102810;1326;99342;-69
2021/11/29 08:58:25;;;;;;;33.20;17.40;;;;;;;0.63;78.21;96823.73;102801;1322;112967;-70
2021/11/29 09:00:56;;;;;;;32.80;16.50;;;;;;;0.62;78.10;96820.66;102774;1321;99141;-67
2021/11/29 09:03:26;;;;;;;38.40;17.60;;;;;;;0.60;78.20;96815.72;102760;1315;110790;-66
2021/11/29 09:05:57;;;;;;;36.10;18.70;;;;;;;0.61;78.29;96812.55;102842;1322;99328;-67
2021/11/29 09:08:26;;;;;;;35.30;18.40;;;;;;;0.61;78.24;96811.64;102846;1319;99251;-67
2021/11/29 09:10:55;;;;;;;35.80;19.20;;;;;;;0.60;78.16;96813.61;102739;1320;114233;-68
2021/11/29 09:13:44;;;;;;;39.80;18.90;;;;;;;0.59;78.35;96815.40;102671;1318;97766;-66
2021/11/29 09:16:16;;;;;;;38.50;20.00;;;;;;;0.59;78.31;96816.97;102698;1318;108202;-67
2021/11/29 09:18:46;;;;;;;35.20;18.00;;;;;;;0.61;78.34;96803.27;102673;1322;97710;-67
2021/11/29 09:21:18;;;;;;;39.00;18.80;;;;;;;0.61;78.37;96797.83;102762;1322;99239;-68
2021/11/29 09:23:47;;;;;;;36.50;18.50;;;;;;;0.62;78.37;96796.93;102647;1321;113212;-67
2021/11/29 09:26:16;;;;;;;34.30;17.10;;;;;;;0.63;78.31;96801.91;102742;1319;99574;-67
2021/11/29 09:28:46;;;;;;;37.80;18.00;;;;;;;0.63;78.28;96803.96;102793;1318;108504;-67
2021/11/29 09:31:19;;;;;;;37.40;19.50;;;;;;;0.62;78.32;96801.77;102748;1315;99968;-67
2021/11/29 09:33:47;;;;;;;35.60;17.40;;;;;;;0.63;78.37;96802.27;102857;1318;99255;-66
2021/11/29 09:36:19;;;;;;;35.80;17.70;;;;;;;0.63;78.48;96801.57;102800;1319;114263;-66
2021/11/29 09:38:47;;;;;;;37.20;18.40;;;;;;;0.62;78.33;96800.92;102779;1321;99277;-66
2021/11/29 09:41:18;;;;;;;37.70;18.90;;;;;;;0.61;78.34;96803.08;102757;1318;109359;-67
2021/11/29 09:43:55;;;;;;;32.70;17.60;;;;;;;0.61;78.36;96807.82;102745;1325;99351;-67
2021/11/29 09:46:24;;;;;;;37.50;18.20;;;;;;;0.58;78.43;96802.95;102799;1319;99306;-68
2021/11/29 09:48:52;;;;;;;33.70;17.20;;;;;;;0.57;78.30;96797.10;102761;1318;113333;-66
2021/11/29 09:51:35;;;;;;;31.90;14.70;;;;;;;0.56;78.38;96792.80;102737;1318;99362;-67
2021/11/29 09:54:08;;;;;;;36.70;18.00;;;;;;;0.55;78.41;96790.60;102752;1318;108382;-67
2021/11/29 09:56:40;;;;;;;35.80;17.10;;;;;;;0.52;78.37;96790.77;102589;1321;99433;-66
2021/11/29 09:59:08;;;;;;;34.80;18.50;;;;;;;0.51;78.41;96788.20;102706;1321;99276;-68
2021/11/29 10:01:37;;;;;;;34.70;18.20;;;;;;;0.51;78.52;96784.75;102599;1321;113389;-68
2021/11/29 10:04:06;;;;;;;32.40;16.30;;;;;;;0.52;78.40;96788.16;102869;1318;99493;-66
2021/11/29 10:06:34;;;;;;;38.60;19.50;;;;;;;0.52;78.48;96794.95;102729;1322;108541;-66
2021/11/29 10:09:28;;;;;;;37.50;18.30;;;;;;;0.54;78.52;96796.21;102742;1319;99231;-66
2021/11/29 10:12:10;;;;;;;38.50;19.00;;;;;;;0.56;78.61;96792.75;102765;1322;99252;-67
2021/11/29 10:14:41;;;;;;;35.40;18.90;;;;;;;0.59;78.75;96786.64;102887;1319;113426;-66
2021/11/29 22:13:26;;;;;;;35.90;16.20;;;;;;;0.47;78.28;97415.14;103057;1309;114295;-68
2021/11/29 22:15:54;;;;;;;35.80;17.10;;;;;;;0.47;78.21;97417.53;103238;1322;99079;-68
2021/11/29 22:18:22;;;;;;;35.00;17.80;;;;;;;0.47;78.27;97417.88;102888;1316;107675;-68
2021/11/29 22:20:52;;;;;;;35.70;16.70;;;;;;;0.48;78.10;97410.87;103113;1316;96656;-69
2021/11/29 22:23:22;;;;;;;37.30;17.90;;;;;;;0.49;78.17;97411.70;103100;1320;99406;-69
2021/11/29 22:25:50;;;;;;;41.90;19.80;;;;;;;0.49;78.10;97408.86;102953;1317;113519;-70
2021/11/29 22:28:18;;;;;;;36.20;17.60;;;;;;;0.49;78.02;97411.36;102962;1321;99229;-69
2021/11/29 22:30:46;;;;;;;34.90;17.90;;;;;;;0.48;77.98;97407.54;102938;1316;108379;-69
2021/11/29 22:33:16;;;;;;;37.30;17.90;;;;;;;0.50;78.13;97413.20;102973;1316;97197;-70
2021/11/29 22:35:47;;;;;;;33.50;16.90;;;;;;;0.50;78.16;97409.38;103004;1316;99345;-68
2021/11/29 22:38:20;;;;;;;33.70;16.40;;;;;;;0.51;78.14;97412.96;102917;1317;113483;-68
2021/11/29 22:40:49;;;;;;;35.70;17.80;;;;;;;0.51;78.18;97408.58;102922;1320;99485;-68
2021/11/29 22:43:18;;;;;;;37.50;18.50;;;;;;;0.50;78.09;97415.61;102940;1316;107788;-68
2021/11/29 22:45:46;;;;;;;30.70;15.30;;;;;;;0.51;78.17;97414.02;102946;1316;99361;-68
2021/11/29 22:48:14;;;;;;;38.50;19.10;;;;;;;0.51;78.08;97423.23;103123;1317;99454;-68
2021/11/29 22:50:46;;;;;;;35.80;17.30;;;;;;;0.52;78.12;97414.82;103030;1316;113441;-68
2021/11/29 22:53:14;;;;;;;35.90;17.60;;;;;;;0.52;78.09;97416.91;102995;1316;99464;-68
2021/11/29 22:55:46;;;;;;;31.60;15.80;;;;;;;0.51;78.32;97418.35;103013;1316;108660;-69
2021/11/29 22:58:15;;;;;;;34.30;17.20;;;;;;;0.51;78.12;97419.06;102768;1317;99254;-69
2021/11/29 23:00:50;;;;;;;36.50;18.80;;;;;;;0.50;78.08;97427.48;102976;1320;99171;-68
2021/11/29 23:03:21;;;;;;;31.30;13.20;;;;;;;0.51;78.07;97424.48;102995;1316;112782;-68
2021/11/29 23:09:08;;;;;;;33.90;15.00;;;;;;;0.53;78.11;97429.80;102625;1322;108473;-69
2021/11/29 23:11:40;;;;;;;33.20;16.30;;;;;;;0.52;78.16;97429.64;102658;1322;99368;-68
2021/11/29 23:14:15;;;;;;;32.90;15.80;;;;;;;0.52;78.08;97438.54;102788;1317;97933;-67
2021/11/29 23:16:47;;;;;;;31.60;16.00;;;;;;;0.53;78.17;97436.74;102987;1317;113440;-67
2021/11/29 23:19:15;;;;;;;31.20;14.50;;;;;;;0.53;78.06;97441.95;103027;1316;99255;-67
2021/11/29 23:21:43;;;;;;;32.20;14.80;;;;;;;0.55;78.18;97445.71;102997;1317;108532;-68
2021/11/29 23:24:13;;;;;;;32.20;14.50;;;;;;;0.54;78.10;97444.52;103045;1316;99260;-69